Time;durP1;ratioP1;P1;durP2;ratioP2;P2;SDS_P1;SDS_P2;PMS_P1;PMS_P2;Temp;Humidity;BMP_temperature;BMP_pressure;BME280_temperature;BME280_humidity;BME280_pressure;Samples;Min_cycle;Max_cycle;Signal;HPM_P1;HPM_P2
2024/01/30 00:00:05;;;;;;;10.80;9.02;;;6.10;99.90;;;;;;4952045;28;20510;-81
2024/01/30 00:02:32;;;;;;;9.75;7.90;;;6.00;99.90;;;;;;4936552;28;20402;-81
2024/01/30 00:04:59;;;;;;;11.23;8.48;;;6.00;99.90;;;;;;4935241;28;20046;-81
2024/01/30 00:07:25;;;;;;;11.88;8.45;;;6.00;99.90;;;;;;4948476;28;20043;-81
2024/01/30 00:09:51;;;;;;;12.30;8.60;;;5.90;99.90;;;;;;4952013;28;20035;-81
2024/01/30 00:12:18;;;;;;;11.75;8.85;;;5.90;99.90;;;;;;4967952;28;20046;-81
2024/01/30 00:14:44;;;;;;;11.88;8.57;;;5.90;99.90;;;;;;4952022;28;20342;-81
2024/01/30 00:17:10;;;;;;;12.05;8.38;;;5.90;99.90;;;;;;4933331;28;20075;-81
2024/01/30 00:19:37;;;;;;;12.60;9.50;;;5.90;99.90;;;;;;4951671;28;20624;-81
2024/01/30 00:22:03;;;;;;;10.23;8.57;;;5.80;99.90;;;;;;4950258;28;20035;-82
2024/01/30 00:24:30;;;;;;;10.43;9.30;;;5.80;99.90;;;;;;4937379;28;20046;-82
2024/01/30 00:26:56;;;;;;;11.73;8.73;;;5.80;99.90;;;;;;4918403;28;20043;-81
2024/01/30 00:29:22;;;;;;;11.90;8.50;;;5.80;99.90;;;;;;4951761;28;20054;-82
2024/01/30 00:31:50;;;;;;;9.90;8.18;;;5.70;99.90;;;;;;4949826;28;20064;-82
2024/01/30 00:34:16;;;;;;;11.77;9.32;;;5.70;99.90;;;;;;4949300;28;20482;-81
2024/01/30 00:36:42;;;;;;;14.80;8.90;;;5.70;99.90;;;;;;4936224;28;20046;-80
2024/01/30 00:39:09;;;;;;;11.60;8.65;;;5.70;99.90;;;;;;4936834;28;20494;-81
2024/01/30 00:41:36;;;;;;;11.15;9.15;;;5.60;99.90;;;;;;4951043;28;20039;-82
2024/01/30 00:44:02;;;;;;;12.25;9.45;;;5.60;99.90;;;;;;4948898;28;20281;-82
2024/01/30 00:46:28;;;;;;;10.25;8.48;;;5.70;99.90;;;;;;4951571;28;20050;-81
2024/01/30 00:48:55;;;;;;;12.38;8.35;;;5.60;99.90;;;;;;4983690;28;20491;-82
2024/01/30 00:51:22;;;;;;;10.70;8.50;;;5.60;99.90;;;;;;4935700;28;20051;-82
2024/01/30 00:53:48;;;;;;;12.43;9.32;;;5.60;99.90;;;;;;4951879;28;20502;-82
2024/01/30 00:56:18;;;;;;;10.40;8.90;;;5.60;99.90;;;;;;4955890;28;20027;-82
2024/01/30 00:58:44;;;;;;;11.02;8.73;;;5.60;99.90;;;;;;4940378;28;20039;-83
2024/01/30 01:01:11;;;;;;;12.45;9.48;;;5.60;99.90;;;;;;4938379;28;20038;-82
2024/01/30 01:03:40;;;;;;;12.57;8.27;;;5.50;99.90;;;;;;4936346;28;20054;-81
2024/01/30 01:06:07;;;;;;;13.50;10.93;;;5.50;99.90;;;;;;4983631;28;20042;-83
2024/01/30 01:08:33;;;;;;;12.00;9.75;;;5.60;99.90;;;;;;4950443;28;20394;-82
2024/01/30 01:10:59;;;;;;;14.07;9.52;;;5.50;99.90;;;;;;4936802;28;20039;-83
2024/01/30 01:13:26;;;;;;;10.88;8.70;;;5.50;99.90;;;;;;4951951;28;20035;-80
2024/01/30 01:15:52;;;;;;;12.02;9.05;;;5.50;99.90;;;;;;4950304;28;20043;-84
2024/01/30 01:18:19;;;;;;;10.25;8.10;;;5.50;99.90;;;;;;4949872;28;20475;-81
2024/01/30 01:20:45;;;;;;;9.55;7.95;;;5.50;99.90;;;;;;4969701;28;20047;-82
2024/01/30 01:23:11;;;;;;;11.43;8.88;;;5.40;99.90;;;;;;4937804;28;20039;-83
2024/01/30 01:25:37;;;;;;;11.73;8.68;;;5.40;99.90;;;;;;4969486;28;20054;-82
2024/01/30 01:28:07;;;;;;;10.18;7.97;;;5.40;99.90;;;;;;4951818;28;20044;-81
2024/01/30 01:30:33;;;;;;;10.65;7.43;;;5.40;99.90;;;;;;4969157;28;20035;-83
2024/01/30 01:33:02;;;;;;;9.30;7.55;;;5.40;99.90;;;;;;4967978;28;20039;-80
2024/01/30 01:35:28;;;;;;;10.38;8.73;;;5.40;99.90;;;;;;4969251;28;20023;-84
2024/01/30 01:37:54;;;;;;;13.40;10.55;;;5.30;99.90;;;;;;4934268;28;20031;-84
2024/01/30 01:40:24;;;;;;;10.80;8.25;;;5.40;99.90;;;;;;4931808;28;20046;-82
2024/01/30 01:42:52;;;;;;;10.27;8.20;;;5.30;99.90;;;;;;4933535;28;20947;-81
2024/01/30 01:45:19;;;;;;;13.43;8.45;;;5.30;99.90;;;;;;4952188;28;20042;-82
2024/01/30 01:47:50;;;;;;;10.95;8.48;;;5.20;99.90;;;;;;4968808;28;20046;-82
2024/01/30 01:50:18;;;;;;;9.23;7.32;;;5.20;99.90;;;;;;4952114;28;20047;-82
2024/01/30 01:52:47;;;;;;;9.73;8.70;;;5.20;99.90;;;;;;4968218;28;20061;-83
2024/01/30 01:55:15;;;;;;;12.25;9.05;;;5.20;99.90;;;;;;4968905;28;20502;-83
2024/01/30 01:57:42;;;;;;;10.02;7.93;;;5.20;99.90;;;;;;4968554;28;20058;-83
2024/01/30 02:00:10;;;;;;;10.57;7.65;;;5.20;99.90;;;;;;4946261;28;20031;-82
2024/01/30 02:02:38;;;;;;;9.73;8.48;;;5.20;99.90;;;;;;4968390;28;20054;-82
2024/01/30 02:05:04;;;;;;;9.30;7.75;;;5.30;99.90;;;;;;4952023;28;20042;-81
2024/01/30 02:07:30;;;;;;;12.77;8.73;;;5.30;99.90;;;;;;4968119;28;20112;-84
2024/01/30 02:09:57;;;;;;;9.73;8.05;;;5.30;99.90;;;;;;4950882;28;20524;-83
2024/01/30 02:12:23;;;;;;;11.18;7.90;;;5.30;99.90;;;;;;4985055;28;20031;-83
2024/01/30 02:14:50;;;;;;;10.60;8.57;;;5.40;99.90;;;;;;4919637;29;20042;-84
2024/01/30 02:17:17;;;;;;;9.93;7.57;;;5.40;99.90;;;;;;4966030;28;20034;-83
2024/01/30 02:19:44;;;;;;;10.05;7.93;;;5.50;99.90;;;;;;4936617;28;20054;-83
2024/01/30 02:22:10;;;;;;;10.93;8.07;;;5.50;99.90;;;;;;4951983;28;20047;-82
2024/01/30 02:24:36;;;;;;;12.35;9.52;;;5.40;99.90;;;;;;4952675;28;20046;-83
2024/01/30 02:27:03;;;;;;;12.55;9.02;;;5.50;99.90;;;;;;4968469;28;20047;-83
2024/01/30 02:29:29;;;;;;;12.52;8.95;;;5.40;99.90;;;;;;4963635;28;20043;-83
2024/01/30 02:31:56;;;;;;;11.10;9.15;;;5.50;99.90;;;;;;4936060;28;20043;-83
2024/01/30 02:34:22;;;;;;;10.57;7.70;;;5.40;99.90;;;;;;4952413;28;20039;-83
2024/01/30 02:36:48;;;;;;;10.13;8.10;;;5.40;99.90;;;;;;4937514;28;20046;-83
2024/01/30 02:39:14;;;;;;;12.32;8.70;;;5.40;99.90;;;;;;4951927;28;20089;-83
2024/01/30 02:41:41;;;;;;;9.70;8.20;;;5.40;99.90;;;;;;4937721;28;20038;-82
2024/01/30 02:44:07;;;;;;;9.13;7.18;;;5.40;99.90;;;;;;4937473;28;20046;-83
2024/01/30 02:46:34;;;;;;;11.40;8.30;;;5.30;99.90;;;;;;4969522;28;20381;-82
2024/01/30 02:49:00;;;;;;;10.30;8.10;;;5.30;99.90;;;;;;4970271;28;20050;-82
2024/01/30 02:51:26;;;;;;;9.05;7.95;;;5.40;99.90;;;;;;4973398;28;20031;-82
2024/01/30 02:53:53;;;;;;;9.13;7.57;;;5.40;99.90;;;;;;4956986;28;20347;-81
2024/01/30 02:56:19;;;;;;;11.15;7.95;;;5.40;99.90;;;;;;4939765;28;20024;-82
2024/01/30 02:58:45;;;;;;;10.40;8.27;;;5.40;99.90;;;;;;4973192;28;20043;-82
2024/01/30 03:01:11;;;;;;;10.18;8.07;;;5.40;99.90;;;;;;4972466;28;20038;-83
2024/01/30 03:03:39;;;;;;;11.90;8.43;;;5.30;99.90;;;;;;4954215;28;20046;-83
2024/01/30 03:06:05;;;;;;;14.30;9.27;;;5.30;99.90;;;;;;4952090;28;20035;-82
2024/01/30 03:08:32;;;;;;;11.75;8.05;;;5.30;99.90;;;;;;4971891;28;20043;-83
2024/01/30 03:10:58;;;;;;;12.95;9.38;;;5.30;99.90;;;;;;4940044;28;20394;-83
2024/01/30 03:13:25;;;;;;;14.25;9.38;;;5.40;99.90;;;;;;4971932;28;20034;-83
2024/01/30 03:15:51;;;;;;;12.27;8.50;;;5.30;99.90;;;;;;4972100;28;20035;-83
2024/01/30 03:18:18;;;;;;;11.00;8.43;;;5.30;99.90;;;;;;4935877;28;20035;-83
2024/01/30 03:20:44;;;;;;;11.10;8.65;;;5.40;99.90;;;;;;4955292;28;20042;-83
2024/01/30 03:23:10;;;;;;;11.25;9.45;;;5.40;99.90;;;;;;4955921;28;20055;-83
2024/01/30 03:25:37;;;;;;;12.65;10.20;;;5.40;99.90;;;;;;4939523;28;20039;-84
2024/01/30 03:28:03;;;;;;;11.00;9.02;;;5.50;99.90;;;;;;4941506;28;20027;-83
2024/01/30 03:30:30;;;;;;;11.20;9.23;;;5.40;99.90;;;;;;4971783;28;20054;-83
2024/01/30 03:32:56;;;;;;;9.95;8.73;;;5.40;99.90;;;;;;4940811;28;20777;-82
2024/01/30 03:35:22;;;;;;;10.10;8.20;;;5.40;99.90;;;;;;4971301;28;20039;-83
2024/01/30 03:37:49;;;;;;;9.70;8.07;;;5.50;99.90;;;;;;4955186;28;20042;-82
2024/01/30 03:40:15;;;;;;;9.88;7.53;;;5.40;99.90;;;;;;4971225;28;20042;-82
2024/01/30 03:42:42;;;;;;;11.30;8.32;;;5.40;99.90;;;;;;4939185;28;20039;-81
2024/01/30 03:45:08;;;;;;;11.25;8.70;;;5.40;99.90;;;;;;4938361;28;20031;-82
2024/01/30 03:47:35;;;;;;;8.93;7.78;;;5.40;99.90;;;;;;4954816;28;20047;-83
2024/01/30 03:50:02;;;;;;;10.13;7.57;;;5.40;99.90;;;;;;4970970;28;20035;-83
2024/01/30 03:52:29;;;;;;;9.50;8.18;;;5.40;99.90;;;;;;4951308;28;20044;-82
2024/01/30 03:54:55;;;;;;;7.93;7.13;;;5.40;99.90;;;;;;4954277;28;20031;-82
2024/01/30 03:57:21;;;;;;;10.05;7.80;;;5.40;99.90;;;;;;4939099;28;20490;-83
2024/01/30 03:59:48;;;;;;;9.55;7.43;;;5.40;99.90;;;;;;4970815;28;20035;-82
2024/01/30 04:02:14;;;;;;;9.25;7.65;;;5.50;99.90;;;;;;4954133;28;20035;-83
2024/01/30 04:04:40;;;;;;;8.63;7.22;;;5.50;99.90;;;;;;4953892;28;20050;-82
2024/01/30 04:07:07;;;;;;;8.20;6.70;;;5.50;99.90;;;;;;4971139;28;20495;-81
2024/01/30 04:09:33;;;;;;;7.45;6.57;;;5.60;99.90;;;;;;4954243;28;20772;-81
2024/01/30 04:11:59;;;;;;;9.88;7.60;;;5.60;99.90;;;;;;4954982;28;20042;-81
2024/01/30 04:14:26;;;;;;;8.82;7.00;;;5.60;99.90;;;;;;4970560;28;20422;-82
2024/01/30 04:16:52;;;;;;;10.43;8.70;;;5.60;99.90;;;;;;4938057;28;20060;-82
2024/01/30 04:19:18;;;;;;;11.27;8.23;;;5.70;99.90;;;;;;4969941;28;20039;-82
2024/01/30 04:21:45;;;;;;;10.77;7.93;;;5.80;99.90;;;;;;4970132;28;20047;-82
2024/01/30 04:24:11;;;;;;;9.70;7.18;;;5.80;99.90;;;;;;4986118;28;20043;-82
2024/01/30 04:26:37;;;;;;;8.68;7.68;;;5.90;99.90;;;;;;4970457;28;20035;-82
2024/01/30 04:29:04;;;;;;;11.52;8.65;;;5.90;99.90;;;;;;4970278;28;20046;-82
2024/01/30 04:31:30;;;;;;;9.80;7.82;;;5.90;99.90;;;;;;4920325;29;20039;-83
2024/01/30 04:33:56;;;;;;;11.70;8.20;;;5.90;99.90;;;;;;4969343;28;20035;-82
2024/01/30 04:36:23;;;;;;;8.95;7.85;;;5.90;99.90;;;;;;4970403;28;21911;-82
2024/01/30 04:38:49;;;;;;;11.52;8.13;;;5.90;99.90;;;;;;4939079;28;20031;-82
2024/01/30 04:41:15;;;;;;;10.77;8.85;;;5.90;99.90;;;;;;4935110;28;20390;-82
2024/01/30 04:43:42;;;;;;;10.20;8.38;;;5.90;99.90;;;;;;4957019;28;20046;-82
2024/01/30 04:46:08;;;;;;;9.15;8.10;;;5.90;99.90;;;;;;4976748;28;20390;-81
2024/01/30 04:48:34;;;;;;;8.68;7.78;;;6.00;99.90;;;;;;4974073;28;20066;-82
2024/01/30 04:51:02;;;;;;;10.05;8.27;;;5.90;99.90;;;;;;4939030;28;20047;-81
2024/01/30 04:57:30;;;;;;;10.73;7.05;;;6.00;99.90;;;;;;4939250;28;20043;-81
2024/01/30 04:59:57;;;;;;;9.02;7.25;;;5.90;99.90;;;;;;4970083;28;20742;-80
2024/01/30 05:02:23;;;;;;;10.85;7.63;;;5.90;99.90;;;;;;4953477;28;20382;-82
2024/01/30 05:04:50;;;;;;;9.45;7.53;;;5.90;99.90;;;;;;4938776;28;20043;-83
2024/01/30 05:07:17;;;;;;;9.80;7.65;;;5.90;99.90;;;;;;4936233;28;20039;-83
2024/01/30 05:09:43;;;;;;;9.60;7.47;;;6.00;99.90;;;;;;4937628;28;20035;-83
2024/01/30 05:12:10;;;;;;;8.85;7.53;;;6.00;99.90;;;;;;4952361;28;20038;-82
2024/01/30 05:14:36;;;;;;;9.75;7.30;;;6.00;99.90;;;;;;4937764;28;20035;-83
2024/01/30 05:17:03;;;;;;;10.82;7.93;;;6.00;99.90;;;;;;4968883;28;20031;-84
2024/01/30 05:19:29;;;;;;;11.30;8.10;;;6.00;99.90;;;;;;4969057;28;20023;-82
2024/01/30 05:21:56;;;;;;;9.68;7.57;;;6.00;99.90;;;;;;4969044;28;20043;-82
2024/01/30 05:24:22;;;;;;;9.30;7.38;;;6.00;99.90;;;;;;4969100;28;20042;-82
2024/01/30 05:26:49;;;;;;;11.80;7.30;;;6.10;99.90;;;;;;4938511;28;20686;-82
2024/01/30 05:29:16;;;;;;;11.52;7.85;;;6.10;99.90;;;;;;4969398;28;20498;-82
2024/01/30 05:31:42;;;;;;;11.55;8.20;;;6.10;99.90;;;;;;4920581;29;20035;-82
2024/01/30 05:34:09;;;;;;;11.00;7.80;;;6.10;99.90;;;;;;4940072;28;20039;-82
2024/01/30 05:36:35;;;;;;;8.57;7.22;;;6.10;99.90;;;;;;4953981;28;20687;-82
2024/01/30 05:39:02;;;;;;;9.25;6.95;;;6.20;99.90;;;;;;4968858;28;20052;-82
2024/01/30 05:41:28;;;;;;;11.30;8.07;;;6.20;99.90;;;;;;4952803;28;20035;-82
2024/01/30 05:43:55;;;;;;;11.40;8.45;;;6.20;99.90;;;;;;4952658;28;20509;-82
2024/01/30 05:46:21;;;;;;;8.88;7.28;;;6.30;99.90;;;;;;4968005;28;20054;-82
2024/01/30 05:48:48;;;;;;;9.18;7.78;;;6.30;99.90;;;;;;4950081;28;20050;-82
2024/01/30 05:51:14;;;;;;;10.70;8.50;;;6.30;99.90;;;;;;4950978;28;20047;-82
2024/01/30 05:53:40;;;;;;;10.00;7.68;;;6.30;99.90;;;;;;4968072;28;20046;-84
2024/01/30 05:56:07;;;;;;;10.88;9.05;;;6.30;99.90;;;;;;4951753;28;20035;-84
2024/01/30 05:58:33;;;;;;;9.75;7.43;;;6.40;99.90;;;;;;4967775;28;20039;-83
2024/01/30 06:01:00;;;;;;;9.77;6.97;;;6.40;99.90;;;;;;4967811;28;20039;-83
2024/01/30 06:03:26;;;;;;;9.45;6.47;;;6.50;99.90;;;;;;4952150;28;20035;-83
2024/01/30 06:05:52;;;;;;;7.70;6.85;;;6.50;99.90;;;;;;4952552;28;20042;-83
2024/01/30 06:08:19;;;;;;;8.40;7.22;;;6.50;99.90;;;;;;4952439;28;20039;-83
2024/01/30 06:10:45;;;;;;;8.15;6.63;;;6.50;99.90;;;;;;4937578;28;20035;-84
2024/01/30 06:13:11;;;;;;;7.50;6.28;;;6.60;99.90;;;;;;4937917;28;20031;-83
2024/01/30 06:15:37;;;;;;;10.75;6.60;;;6.60;99.90;;;;;;4951412;28;20050;-85
2024/01/30 06:18:04;;;;;;;8.00;6.20;;;6.60;99.90;;;;;;4952635;28;20482;-84
2024/01/30 06:20:30;;;;;;;8.43;6.75;;;6.70;99.90;;;;;;4936331;28;20043;-84
2024/01/30 06:22:57;;;;;;;8.63;6.50;;;6.70;99.90;;;;;;4949101;28;20046;-84
2024/01/30 06:25:24;;;;;;;8.82;6.68;;;6.70;99.90;;;;;;4968565;28;20043;-83
2024/01/30 06:27:50;;;;;;;9.93;6.22;;;6.80;99.90;;;;;;4967574;28;20038;-84
2024/01/30 06:30:16;;;;;;;9.50;7.05;;;6.80;99.90;;;;;;4968511;28;20046;-84
2024/01/30 06:32:43;;;;;;;8.13;6.70;;;6.80;99.90;;;;;;4967805;28;20056;-82
2024/01/30 06:35:10;;;;;;;10.00;6.38;;;6.80;99.90;;;;;;4952325;28;20046;-82
2024/01/30 06:37:37;;;;;;;9.15;7.13;;;6.80;99.90;;;;;;4952676;28;20398;-83
2024/01/30 06:40:05;;;;;;;8.50;6.10;;;6.90;99.90;;;;;;4972307;28;20495;-83
2024/01/30 06:42:31;;;;;;;10.43;7.82;;;6.90;99.90;;;;;;4990851;28;20039;-83
2024/01/30 06:44:57;;;;;;;8.85;6.93;;;6.90;99.90;;;;;;4935984;28;20062;-82
2024/01/30 06:47:24;;;;;;;8.55;6.90;;;6.90;99.90;;;;;;4953855;28;20038;-83
2024/01/30 06:49:50;;;;;;;7.00;6.30;;;6.90;99.90;;;;;;4951695;28;20035;-83
2024/01/30 06:52:16;;;;;;;8.02;7.05;;;6.90;99.90;;;;;;4968455;28;20613;-83
2024/01/30 06:54:43;;;;;;;9.20;7.32;;;7.00;99.90;;;;;;4949330;28;20027;-83
2024/01/30 06:57:11;;;;;;;7.32;5.97;;;7.00;99.90;;;;;;4952234;28;20398;-83
2024/01/30 06:59:43;;;;;;;8.10;6.68;;;7.00;99.90;;;;;;4951729;28;20074;-83
2024/01/30 07:02:12;;;;;;;8.32;6.75;;;7.10;99.90;;;;;;4949411;28;20407;-83
2024/01/30 07:04:40;;;;;;;10.25;7.53;;;7.10;99.90;;;;;;4934241;28;20039;-83
2024/01/30 07:07:11;;;;;;;10.02;7.78;;;7.10;99.90;;;;;;4967355;28;20043;-83
2024/01/30 07:09:38;;;;;;;8.88;7.22;;;7.10;99.90;;;;;;4952647;28;20039;-82
2024/01/30 07:12:06;;;;;;;9.68;7.38;;;7.20;99.90;;;;;;4983528;28;20035;-83
2024/01/30 07:14:32;;;;;;;9.90;7.65;;;7.20;99.90;;;;;;4952131;28;20308;-84
2024/01/30 07:16:59;;;;;;;8.73;7.50;;;7.20;99.90;;;;;;4966674;28;20046;-83
2024/01/30 07:19:25;;;;;;;9.73;5.93;;;7.30;99.90;;;;;;4953039;28;20035;-83
2024/01/30 07:21:51;;;;;;;10.07;7.43;;;7.30;99.90;;;;;;4967769;28;20035;-83
2024/01/30 07:24:18;;;;;;;8.20;6.30;;;7.30;99.90;;;;;;4937826;28;20848;-83
2024/01/30 07:26:44;;;;;;;9.63;6.60;;;7.30;99.90;;;;;;4937450;28;20140;-86
2024/01/30 07:29:10;;;;;;;7.47;6.10;;;7.30;99.90;;;;;;4955533;28;20043;-83
2024/01/30 07:31:37;;;;;;;7.07;5.68;;;7.30;99.90;;;;;;4965953;28;20046;-83
2024/01/30 07:34:03;;;;;;;7.68;5.55;;;7.40;99.90;;;;;;4968521;28;20035;-82
2024/01/30 07:36:29;;;;;;;7.32;6.22;;;7.50;99.90;;;;;;4935614;28;20039;-83
2024/01/30 07:38:56;;;;;;;7.78;6.03;;;7.50;99.90;;;;;;4968122;28;20047;-83
2024/01/30 07:41:24;;;;;;;9.30;6.60;;;7.50;99.90;;;;;;4935662;28;20058;-83
2024/01/30 07:43:50;;;;;;;8.25;6.47;;;7.50;99.90;;;;;;4968914;28;20058;-83
2024/01/30 07:46:17;;;;;;;11.07;6.63;;;7.60;99.90;;;;;;4971436;28;20552;-83
2024/01/30 07:48:43;;;;;;;9.38;7.78;;;7.60;99.90;;;;;;4936505;28;20809;-83
2024/01/30 07:51:09;;;;;;;7.88;6.80;;;7.60;99.90;;;;;;4970754;28;20050;-83
2024/01/30 07:53:36;;;;;;;9.40;6.45;;;7.70;99.90;;;;;;4955279;28;20039;-83
2024/01/30 07:56:02;;;;;;;8.10;6.88;;;7.70;99.90;;;;;;4971054;28;20046;-82
2024/01/30 07:58:29;;;;;;;8.40;6.70;;;7.70;99.90;;;;;;4954842;28;20051;-84
2024/01/30 08:00:58;;;;;;;9.82;7.72;;;7.70;99.90;;;;;;4936981;28;20412;-83
2024/01/30 08:03:24;;;;;;;9.77;6.95;;;7.80;99.90;;;;;;4939208;28;20542;-83
2024/01/30 08:05:51;;;;;;;10.55;8.15;;;7.80;99.90;;;;;;4987097;28;20039;-83
2024/01/30 08:08:17;;;;;;;7.93;6.55;;;7.90;99.90;;;;;;4971476;28;20042;-82
2024/01/30 08:10:43;;;;;;;9.85;7.07;;;7.90;99.90;;;;;;4920542;28;20043;-82
2024/01/30 08:13:10;;;;;;;8.48;6.75;;;7.90;99.90;;;;;;4971155;28;20035;-82
2024/01/30 08:15:36;;;;;;;9.70;7.20;;;7.90;99.90;;;;;;4971635;28;20050;-81
2024/01/30 08:18:02;;;;;;;9.45;6.63;;;8.00;99.90;;;;;;4939232;28;20035;-81
2024/01/30 08:20:29;;;;;;;9.60;7.50;;;8.10;99.90;;;;;;4970995;28;20371;-82
2024/01/30 08:22:55;;;;;;;10.55;6.90;;;8.20;99.90;;;;;;4954517;28;20027;-83
2024/01/30 08:25:21;;;;;;;9.18;6.97;;;8.20;99.90;;;;;;4971132;28;20027;-82
2024/01/30 08:27:48;;;;;;;9.65;6.22;;;8.30;99.90;;;;;;4940584;28;20031;-81
2024/01/30 08:30:14;;;;;;;10.32;8.38;;;8.30;99.90;;;;;;4953624;28;20042;-82
2024/01/30 08:32:41;;;;;;;10.00;7.60;;;8.40;99.90;;;;;;4935437;28;20366;-82
2024/01/30 08:35:08;;;;;;;9.02;7.70;;;8.50;99.90;;;;;;4955593;28;20553;-82
2024/01/30 08:37:35;;;;;;;12.27;8.00;;;8.60;99.90;;;;;;4955457;28;20043;-82
2024/01/30 08:40:03;;;;;;;8.40;7.50;;;8.60;99.90;;;;;;4940769;28;20035;-81
2024/01/30 08:42:29;;;;;;;8.05;6.40;;;8.70;99.90;;;;;;4938837;28;20047;-82
2024/01/30 08:44:56;;;;;;;8.80;7.35;;;8.80;99.90;;;;;;4954684;28;20152;-82
2024/01/30 08:47:22;;;;;;;9.35;7.47;;;8.90;99.90;;;;;;4987209;28;20376;-82
2024/01/30 08:49:48;;;;;;;9.35;7.80;;;8.90;99.90;;;;;;4969661;28;20043;-82
2024/01/30 08:52:15;;;;;;;9.85;7.25;;;9.00;99.90;;;;;;4939625;28;20046;-82
2024/01/30 08:54:41;;;;;;;8.63;6.68;;;9.00;99.90;;;;;;4956457;28;20054;-82
2024/01/30 08:57:07;;;;;;;8.98;6.70;;;9.10;99.90;;;;;;4939302;28;20035;-83
2024/01/30 08:59:34;;;;;;;9.88;6.93;;;9.10;99.90;;;;;;4950625;28;20050;-82
2024/01/30 09:02:00;;;;;;;7.93;6.90;;;9.10;99.90;;;;;;4954362;28;20039;-82
2024/01/30 09:04:27;;;;;;;9.23;6.85;;;9.20;99.90;;;;;;4970435;28;20046;-81
2024/01/30 09:06:53;;;;;;;8.43;6.57;;;9.20;99.90;;;;;;4970645;28;20038;-81
2024/01/30 09:09:20;;;;;;;7.88;5.82;;;9.30;99.90;;;;;;4953978;28;20046;-81
2024/01/30 09:11:47;;;;;;;8.15;6.50;;;9.30;99.90;;;;;;4935097;28;20403;-81
2024/01/30 09:14:13;;;;;;;6.63;5.85;;;9.40;99.90;;;;;;4969109;28;20039;-81
2024/01/30 09:16:39;;;;;;;9.77;6.22;;;9.40;99.90;;;;;;4969973;28;20039;-83
2024/01/30 09:19:06;;;;;;;9.15;6.40;;;9.50;99.90;;;;;;4935985;28;20128;-82
2024/01/30 09:21:32;;;;;;;8.52;6.75;;;9.50;99.90;;;;;;4951285;28;20055;-81
2024/01/30 09:24:05;;;;;;;9.57;7.35;;;9.50;99.90;;;;;;4969291;28;20039;-82
2024/01/30 09:26:32;;;;;;;9.50;6.82;;;9.60;99.90;;;;;;4970288;28;20403;-83
2024/01/30 09:28:58;;;;;;;8.40;6.72;;;9.60;99.90;;;;;;4937480;28;20043;-84
2024/01/30 09:31:24;;;;;;;8.35;7.03;;;9.60;99.90;;;;;;4969677;28;20027;-83
2024/01/30 09:33:53;;;;;;;8.38;7.10;;;9.60;99.90;;;;;;4953543;28;20061;-83
2024/01/30 09:36:20;;;;;;;10.75;7.57;;;9.70;99.90;;;;;;4970043;28;20039;-83
2024/01/30 09:38:46;;;;;;;10.18;7.38;;;9.70;99.90;;;;;;4952712;28;20039;-82
2024/01/30 09:41:13;;;;;;;11.27;7.85;;;9.80;99.90;;;;;;4969321;28;20050;-81
2024/01/30 09:43:40;;;;;;;11.68;7.57;;;9.80;99.90;;;;;;4968713;28;20514;-82
2024/01/30 09:46:12;;;;;;;12.63;7.90;;;9.90;99.90;;;;;;4969679;28;20050;-80
2024/01/30 09:48:40;;;;;;;10.30;6.32;;;9.90;99.90;;;;;;4938084;28;20039;-83
2024/01/30 09:51:08;;;;;;;11.32;7.72;;;9.90;99.90;;;;;;4967280;28;20283;-85
2024/01/30 09:53:37;;;;;;;9.02;7.15;;;10.00;99.90;;;;;;4953176;28;20743;-84
2024/01/30 09:56:05;;;;;;;11.10;7.95;;;10.10;99.90;;;;;;4969390;28;20035;-85
2024/01/30 09:58:31;;;;;;;11.98;8.45;;;10.10;99.90;;;;;;4951236;28;20527;-83
2024/01/30 10:00:58;;;;;;;10.52;8.52;;;10.10;99.90;;;;;;4952853;28;20446;-84
2024/01/30 10:03:25;;;;;;;11.00;8.63;;;10.20;99.90;;;;;;4952325;28;20050;-83
2024/01/30 10:05:55;;;;;;;10.00;7.72;;;10.20;99.90;;;;;;4965329;28;20031;-81
2024/01/30 10:08:21;;;;;;;8.18;7.05;;;10.20;99.90;;;;;;4937014;28;20031;-84
2024/01/30 10:10:49;;;;;;;12.27;8.45;;;10.20;99.90;;;;;;4937963;28;20042;-82
2024/01/30 10:13:16;;;;;;;11.10;8.57;;;10.20;99.90;;;;;;4952240;28;20039;-82
2024/01/30 10:15:43;;;;;;;11.35;8.25;;;10.30;99.90;;;;;;4968845;28;20463;-84
2024/01/30 10:18:10;;;;;;;11.10;8.15;;;10.30;99.90;;;;;;4969486;28;20038;-84
2024/01/30 10:20:37;;;;;;;10.95;7.88;;;10.40;99.90;;;;;;4952871;28;20383;-83
2024/01/30 10:23:04;;;;;;;9.10;6.63;;;10.40;99.90;;;;;;4936188;29;20402;-83
2024/01/30 10:25:33;;;;;;;11.30;8.18;;;10.50;99.90;;;;;;4968443;28;20039;-84
2024/01/30 10:28:00;;;;;;;13.65;8.23;;;10.60;99.90;;;;;;4968517;28;20046;-83
2024/01/30 10:30:27;;;;;;;12.07;8.13;;;10.60;99.90;;;;;;4952800;28;20042;-84
2024/01/30 10:32:54;;;;;;;13.50;7.70;;;10.60;99.90;;;;;;4969683;28;20035;-83
2024/01/30 10:35:21;;;;;;;11.25;7.85;;;10.60;99.90;;;;;;4969144;28;20035;-83
2024/01/30 10:37:48;;;;;;;9.88;6.65;;;10.60;99.90;;;;;;4969440;28;20042;-84
2024/01/30 10:40:15;;;;;;;12.80;7.57;;;10.60;99.90;;;;;;4968878;28;20035;-82
2024/01/30 10:42:44;;;;;;;13.18;7.95;;;10.60;99.90;;;;;;4968025;28;20356;-83
2024/01/30 10:45:12;;;;;;;9.68;7.80;;;10.70;99.90;;;;;;4936387;28;20541;-83
2024/01/30 10:47:56;;;;;;;12.45;8.30;;;10.70;99.90;;;;;;4968544;28;20039;-84
2024/01/30 10:50:24;;;;;;;12.23;7.70;;;10.70;99.90;;;;;;4967152;28;20855;-83
2024/01/30 10:52:52;;;;;;;12.45;8.13;;;10.70;99.90;;;;;;4951858;28;20042;-84
2024/01/30 10:55:19;;;;;;;17.75;8.73;;;10.80;99.90;;;;;;4952205;28;20070;-85
2024/01/30 10:57:45;;;;;;;14.05;7.38;;;10.80;99.90;;;;;;4968196;28;20058;-84
2024/01/30 11:00:15;;;;;;;14.10;8.60;;;10.90;99.90;;;;;;4938156;28;20126;-84
2024/01/30 11:02:44;;;;;;;15.20;9.10;;;10.90;99.90;;;;;;4952322;28;20501;-83
2024/01/30 11:05:11;;;;;;;13.85;8.43;;;10.90;99.90;;;;;;4968278;28;20050;-81
2024/01/30 11:07:40;;;;;;;14.65;9.50;;;11.00;99.90;;;;;;4968593;28;20054;-84
2024/01/30 11:10:08;;;;;;;13.90;8.18;;;11.00;99.90;;;;;;4952040;28;20046;-85
2024/01/30 11:12:46;;;;;;;11.18;7.78;;;11.10;99.90;;;;;;4968208;28;20042;-83
2024/01/30 11:15:14;;;;;;;12.73;8.82;;;11.10;99.90;;;;;;4951789;28;20027;-84
2024/01/30 11:17:49;;;;;;;12.93;8.90;;;11.10;99.90;;;;;;4951736;28;20367;-82
2024/01/30 11:20:26;;;;;;;10.90;7.65;;;11.20;99.90;;;;;;4970499;28;20039;-82
2024/01/30 11:22:53;;;;;;;12.32;9.48;;;11.30;99.90;;;;;;4971504;28;20031;-84
2024/01/30 11:25:21;;;;;;;10.30;7.40;;;11.40;99.90;;;;;;4941263;28;20410;-84
2024/01/30 11:27:50;;;;;;;15.48;7.85;;;11.50;99.90;;;;;;4972483;28;20043;-86
2024/01/30 11:30:23;;;;;;;16.20;9.05;;;11.60;99.90;;;;;;4941500;28;20035;-80
2024/01/30 11:33:04;;;;;;;12.98;8.73;;;11.60;99.90;;;;;;4971486;28;21878;-83
2024/01/30 11:35:41;;;;;;;11.88;8.68;;;11.60;99.90;;;;;;4971958;28;20047;-84
2024/01/30 11:38:09;;;;;;;11.55;8.85;;;11.60;99.90;;;;;;4967954;28;20046;-82
2024/01/30 11:40:37;;;;;;;13.02;7.60;;;11.60;99.90;;;;;;4970955;28;20042;-83
2024/01/30 11:43:06;;;;;;;13.10;6.95;;;11.60;99.90;;;;;;4956086;28;20038;-84
2024/01/30 11:45:33;;;;;;;11.95;7.72;;;11.60;99.90;;;;;;4970046;28;20447;-82
2024/01/30 11:48:01;;;;;;;11.70;8.43;;;11.70;99.90;;;;;;4971783;28;20479;-84
2024/01/30 11:50:28;;;;;;;12.35;7.03;;;11.70;99.90;;;;;;4955066;28;20522;-81
2024/01/30 11:52:55;;;;;;;13.45;8.15;;;11.80;99.90;;;;;;4971083;28;20039;-82
2024/01/30 11:55:23;;;;;;;12.55;7.70;;;11.90;99.90;;;;;;4955261;28;20035;-84
2024/01/30 11:57:50;;;;;;;12.63;8.20;;;12.00;99.90;;;;;;4940637;28;20340;-84
2024/01/30 12:00:18;;;;;;;11.70;8.45;;;12.10;99.90;;;;;;4955340;28;20039;-85
2024/01/30 12:02:49;;;;;;;10.65;7.88;;;12.30;99.90;;;;;;4954016;28;20065;-83
2024/01/30 12:05:15;;;;;;;11.50;7.93;;;12.40;99.90;;;;;;4971994;28;20050;-83
2024/01/30 12:07:48;;;;;;;11.20;7.35;;;12.50;99.90;;;;;;4939361;29;20039;-82
2024/01/30 12:10:14;;;;;;;10.43;6.53;;;12.40;99.90;;;;;;4969720;28;20058;-85
2024/01/30 12:12:42;;;;;;;10.85;7.10;;;12.40;99.90;;;;;;4940516;28;20042;-84
2024/01/30 12:15:10;;;;;;;10.23;7.32;;;12.30;99.90;;;;;;4954223;28;20039;-87
2024/01/30 12:17:37;;;;;;;10.70;6.80;;;12.30;99.90;;;;;;4970356;28;20035;-85
2024/01/30 12:20:08;;;;;;;28.05;20.45;;;12.30;99.90;;;;;;4957246;28;20039;-86
2024/01/30 12:22:39;;;;;;;18.77;12.93;;;12.30;99.90;;;;;;4970526;28;20039;-79
2024/01/30 12:25:17;;;;;;;11.43;8.63;;;12.30;99.90;;;;;;4951535;28;20050;-80
2024/01/30 12:27:45;;;;;;;14.32;8.77;;;12.30;99.90;;;;;;4970507;28;20483;-79
2024/01/30 12:30:15;;;;;;;10.35;7.78;;;12.30;99.90;;;;;;4939085;28;20038;-78
2024/01/30 12:32:44;;;;;;;9.90;6.82;;;12.40;99.90;;;;;;4970608;28;20668;-79
2024/01/30 12:35:15;;;;;;;9.63;5.85;;;12.50;99.90;;;;;;4938430;28;20050;-81
2024/01/30 12:37:44;;;;;;;11.23;6.80;;;12.60;99.90;;;;;;4939164;28;20043;-78
2024/01/30 12:40:16;;;;;;;9.98;7.15;;;12.70;99.90;;;;;;4939257;28;20035;-81
2024/01/30 12:42:48;;;;;;;11.07;5.88;;;12.70;99.90;;;;;;4938968;28;20035;-82
2024/01/30 12:45:15;;;;;;;6.67;5.17;;;12.70;99.90;;;;;;4968371;28;20062;-83
2024/01/30 12:47:42;;;;;;;13.05;4.38;;;12.70;99.90;;;;;;4953819;28;20509;-83
2024/01/30 12:50:08;;;;;;;6.25;2.95;;;12.60;99.90;;;;;;4939372;28;20038;-84